createdAt,value
2019-01-26T00:16:40.429Z,84.87
2019-01-26T00:26:36.400Z,75.67
2019-01-26T00:40:32.983Z,90.37
2019-01-26T00:43:18.313Z,76.10
2019-01-26T00:46:37.217Z,83.80
2019-01-26T00:49:30.018Z,71.20
2019-01-26T01:14:55.868Z,75.80
2019-01-26T01:17:41.398Z,78.13
2019-01-26T01:20:26.366Z,83.80
2019-01-26T01:23:11.409Z,86.97
2019-01-26T01:25:56.683Z,80.37
2019-01-26T01:28:41.351Z,77.53
2019-01-26T01:31:26.473Z,79.27
2019-01-26T01:34:11.474Z,84.70
2019-01-26T01:36:56.767Z,73.93
2019-01-26T01:39:41.967Z,82.97
2019-01-26T01:42:27.072Z,85.40
2019-01-26T01:45:22.759Z,88.27
2019-01-26T01:48:07.621Z,78.10
2019-01-26T01:50:52.570Z,79.80
2019-01-26T01:53:37.818Z,95.27
2019-01-26T01:56:23.116Z,94.20
2019-01-26T01:59:07.996Z,84.23
2019-01-26T02:01:53.128Z,87.77
2019-01-26T02:04:38.375Z,86.63
2019-01-26T02:07:23.028Z,86.77
2019-01-26T02:10:11.142Z,87.87
2019-01-26T02:12:55.782Z,85.03
2019-01-26T02:15:41.279Z,88.00
2019-01-26T02:18:26.486Z,89.23
2019-01-26T02:21:11.881Z,84.47
2019-01-26T02:23:56.765Z,88.27
2019-01-26T02:26:41.944Z,85.17
2019-01-26T02:29:27.223Z,92.70
2019-01-26T02:32:11.905Z,99.87
2019-01-26T02:34:56.753Z,96.87
2019-01-26T02:37:41.911Z,92.00
2019-01-26T02:40:26.848Z,93.07
2019-01-26T02:43:12.023Z,98.80
2019-01-26T02:45:57.389Z,98.60
2019-01-26T02:48:42.733Z,95.83
2019-01-26T02:51:27.881Z,95.83
2019-01-26T02:54:12.726Z,100.13
2019-01-26T02:56:58.034Z,95.57
2019-01-26T02:59:43.274Z,106.30
2019-01-26T03:02:28.609Z,94.27
2019-01-26T03:05:13.859Z,98.17
2019-01-26T03:07:58.986Z,96.40
2019-01-26T03:10:44.216Z,100.10
2019-01-26T03:13:29.240Z,101.30
2019-01-26T03:16:13.960Z,100.07
2019-01-26T03:18:58.865Z,99.50
2019-01-26T03:21:44.112Z,94.07
2019-01-26T03:24:28.810Z,94.17
2019-01-26T03:27:13.593Z,100.70
2019-01-26T03:29:58.702Z,104.73
2019-01-26T03:32:43.629Z,94.53
2019-01-26T03:35:28.996Z,99.50
2019-01-26T03:38:14.336Z,95.43
2019-01-26T03:40:59.409Z,103.57
2019-01-26T03:43:44.266Z,98.97
2019-01-26T03:46:29.457Z,99.37
2019-01-26T03:49:14.601Z,97.10
2019-01-26T03:51:59.743Z,95.93
2019-01-26T03:54:45.156Z,103.50
2019-01-26T03:57:30.293Z,104.80
2019-01-26T04:00:21.336Z,102.03
2019-01-26T04:03:06.279Z,102.57
2019-01-26T04:05:51.561Z,110.80
2019-01-26T04:08:36.703Z,106.87
2019-01-26T04:11:22.447Z,106.77
2019-01-26T04:14:08.229Z,90.80
2019-01-26T04:16:53.532Z,101.50
2019-01-26T04:19:38.256Z,101.77
2019-01-26T04:22:22.855Z,106.33
2019-01-26T04:25:07.637Z,110.23
2019-01-26T04:27:52.875Z,105.77
2019-01-26T04:30:37.854Z,106.27
2019-01-26T04:33:22.664Z,105.47
2019-01-26T04:36:08.450Z,103.97
2019-01-26T04:38:54.445Z,111.40
2019-01-26T04:41:39.535Z,103.67
2019-01-26T04:44:25.018Z,102.80
2019-01-26T04:47:10.004Z,108.60
2019-01-26T04:49:55.203Z,106.90
2019-01-26T04:52:40.448Z,106.53
2019-01-26T04:55:25.244Z,115.23
2019-01-26T04:58:10.554Z,112.23
2019-01-26T05:00:55.249Z,106.20
2019-01-26T05:03:39.965Z,109.50
2019-01-26T05:06:24.690Z,122.77
2019-01-26T05:09:09.476Z,115.60
2019-01-26T05:11:54.355Z,113.70
2019-01-26T05:14:39.373Z,114.20
2019-01-26T05:17:24.349Z,116.87
2019-01-26T05:20:21.278Z,114.33
2019-01-26T05:23:06.156Z,118.00
2019-01-26T05:25:51.269Z,120.23
2019-01-26T05:28:36.726Z,119.43
2019-01-26T05:31:22.259Z,118.30
2019-01-26T05:34:07.314Z,122.20
2019-01-26T05:36:52.434Z,124.70
2019-01-26T05:39:37.747Z,119.70
2019-01-26T05:42:22.420Z,110.90
2019-01-26T05:45:10.224Z,119.17
2019-01-26T05:47:55.251Z,124.77
2019-01-26T05:50:40.623Z,120.50
2019-01-26T05:53:25.608Z,122.57
2019-01-26T05:56:10.407Z,124.10
2019-01-26T05:58:55.100Z,120.00
2019-01-26T06:01:39.971Z,125.80
2019-01-26T06:04:25.205Z,117.83
2019-01-26T06:07:12.997Z,123.27
2019-01-26T06:09:58.045Z,118.33
2019-01-26T06:12:43.399Z,129.13
2019-01-26T06:15:28.954Z,118.37
2019-01-26T06:18:14.081Z,127.27
2019-01-26T06:20:58.979Z,122.13
2019-01-26T06:23:44.601Z,118.93
2019-01-26T06:26:29.885Z,125.07
2019-01-26T06:29:15.990Z,124.60
2019-01-26T06:32:00.671Z,134.43
2019-01-26T06:34:45.533Z,128.37
2019-01-26T06:37:31.112Z,130.27
2019-01-26T06:40:18.042Z,126.73
2019-01-26T06:43:02.924Z,123.17
2019-01-26T06:45:48.390Z,115.50
2019-01-26T06:48:33.908Z,122.77
2019-01-26T06:51:18.826Z,128.13
2019-01-26T06:54:03.756Z,134.23
2019-01-26T06:56:50.478Z,137.17
2019-01-26T06:59:35.545Z,136.10
2019-01-26T07:02:21.366Z,138.20
2019-01-26T07:05:09.968Z,133.20
2019-01-26T07:07:54.810Z,140.40
2019-01-26T07:10:40.227Z,137.80
2019-01-26T07:13:25.514Z,124.77
2019-01-26T07:16:11.089Z,127.00
2019-01-26T07:18:56.456Z,131.77
2019-01-26T07:21:41.457Z,120.07
2019-01-26T07:24:26.373Z,129.93
2019-01-26T07:27:11.159Z,141.00
2019-01-26T07:29:55.856Z,132.87
2019-01-26T07:32:41.075Z,132.80
2019-01-26T07:35:26.330Z,132.80
2019-01-26T07:38:13.751Z,137.40
2019-01-26T07:40:58.620Z,140.93
2019-01-26T07:43:43.542Z,144.03
2019-01-26T07:46:28.286Z,143.80
2019-01-26T07:49:13.214Z,133.63
2019-01-26T07:51:58.484Z,123.50
2019-01-26T07:54:43.891Z,130.33
2019-01-26T07:57:28.992Z,140.00
2019-01-26T08:00:26.146Z,122.70
2019-01-26T08:03:11.037Z,142.00
2019-01-26T08:05:55.907Z,134.47
2019-01-26T08:08:40.981Z,132.27
2019-01-26T08:11:26.214Z,139.03
2019-01-26T08:14:11.208Z,135.37
2019-01-26T08:16:56.600Z,132.23
2019-01-26T08:19:41.682Z,126.70
2019-01-26T08:22:47.073Z,137.63
2019-01-26T08:25:32.801Z,136.23
2019-01-26T08:28:19.011Z,134.80
2019-01-26T08:31:03.975Z,144.27
2019-01-26T08:33:49.182Z,136.13
2019-01-26T08:36:33.798Z,131.87
2019-01-26T08:39:18.649Z,146.90
2019-01-26T08:42:04.402Z,134.80
2019-01-26T08:44:49.270Z,133.20
2019-01-26T08:47:34.408Z,133.53
2019-01-26T08:50:22.047Z,149.63
2019-01-26T08:53:07.525Z,135.23
2019-01-26T08:55:52.760Z,143.80
2019-01-26T08:58:37.760Z,140.07
2019-01-26T09:01:23.282Z,137.97
2019-01-26T09:04:10.233Z,144.77
2019-01-26T09:06:55.123Z,139.93
2019-01-26T09:09:40.560Z,136.27
2019-01-26T09:12:25.867Z,137.57
2019-01-26T09:15:10.806Z,139.43
2019-01-26T09:17:55.962Z,141.07
2019-01-26T09:20:40.923Z,141.20
2019-01-26T09:23:26.046Z,142.13
2019-01-26T09:26:11.313Z,138.13
2019-01-26T09:28:56.642Z,143.33
2019-01-26T09:31:42.017Z,144.20
2019-01-26T09:34:27.110Z,139.07
2019-01-26T09:37:11.894Z,148.47
2019-01-26T09:39:57.373Z,145.50
2019-01-26T09:42:42.358Z,140.23
2019-01-26T09:45:27.705Z,145.13
2019-01-26T09:48:12.954Z,144.20
2019-01-26T09:50:58.258Z,171.23
2019-01-26T09:53:43.997Z,153.50
2019-01-26T09:56:29.073Z,138.03
2019-01-26T09:59:14.129Z,159.50
2019-01-26T10:01:59.548Z,175.50
2019-01-26T10:04:44.509Z,168.50
2019-01-26T10:07:29.641Z,165.47
2019-01-26T10:10:34.317Z,150.17
2019-01-26T10:13:18.968Z,146.27
2019-01-26T10:16:04.210Z,148.60
2019-01-26T10:18:53.628Z,151.27
2019-01-26T10:21:43.875Z,143.00
2019-01-26T10:24:29.050Z,142.27
2019-01-26T10:27:13.986Z,153.20
2019-01-26T10:29:59.280Z,149.33
2019-01-26T10:32:44.672Z,148.53
2019-01-26T10:35:34.620Z,214.03
2019-01-26T10:38:20.368Z,196.27
2019-01-26T10:41:07.490Z,173.33
2019-01-26T10:43:54.114Z,161.93
2019-01-26T10:46:39.134Z,173.83
2019-01-26T10:49:24.633Z,164.70
2019-01-26T10:52:09.633Z,165.30
2019-01-26T10:54:54.563Z,172.43
2019-01-26T10:57:39.609Z,160.23
2019-01-26T11:00:24.601Z,181.10
2019-01-26T11:03:09.839Z,155.70
2019-01-26T11:05:54.865Z,157.90
2019-01-26T11:08:40.114Z,168.33
2019-01-26T11:11:25.318Z,162.70
2019-01-26T11:14:10.596Z,154.23
2019-01-26T11:16:57.664Z,159.97
2019-01-26T11:19:42.589Z,160.63
2019-01-26T11:22:27.834Z,167.33
2019-01-26T11:25:13.284Z,160.87
2019-01-26T11:28:00.290Z,159.60
2019-01-26T11:30:45.674Z,161.67
2019-01-26T11:33:30.907Z,150.10
2019-01-26T11:36:16.632Z,153.07
2019-01-26T11:39:05.130Z,164.17
2019-01-26T11:41:50.434Z,165.90
2019-01-26T11:44:35.605Z,158.80
2019-01-26T11:47:20.699Z,164.83
2019-01-26T11:50:08.096Z,161.37
2019-01-26T11:52:53.271Z,161.30
2019-01-26T11:55:49.238Z,162.13
2019-01-26T11:58:34.221Z,157.17
2019-01-26T12:01:26.749Z,162.27
2019-01-26T12:04:19.059Z,160.60
2019-01-26T12:07:05.851Z,158.77
2019-01-26T12:09:51.085Z,166.37
2019-01-26T12:12:36.435Z,153.40
2019-01-26T12:15:22.146Z,166.40
2019-01-26T12:18:06.963Z,160.87
2019-01-26T12:20:51.800Z,170.27
2019-01-26T12:23:36.854Z,162.10
2019-01-26T12:26:21.786Z,153.67
2019-01-26T12:29:08.796Z,159.07
2019-01-26T12:31:53.707Z,164.40
2019-01-26T12:34:39.729Z,161.03
2019-01-26T12:37:24.770Z,169.93
2019-01-26T12:40:11.998Z,166.80
2019-01-26T12:42:59.210Z,167.60
2019-01-26T12:45:44.701Z,170.27
2019-01-26T12:48:29.819Z,181.40
2019-01-26T12:51:15.045Z,167.93
2019-01-26T12:54:01.675Z,177.17
2019-01-26T12:56:47.207Z,174.40
2019-01-26T12:59:33.002Z,191.03
2019-01-26T13:02:18.255Z,175.50
2019-01-26T13:05:05.693Z,185.73
2019-01-26T13:07:50.554Z,176.57
2019-01-26T13:10:51.286Z,183.23
2019-01-26T13:13:36.301Z,184.40
2019-01-26T13:16:21.529Z,179.40
2019-01-26T13:19:06.205Z,177.17
2019-01-26T13:21:51.029Z,178.37
2019-01-26T13:24:37.089Z,172.33
2019-01-26T13:27:21.845Z,163.73
2019-01-26T13:30:21.636Z,184.30
2019-01-26T13:33:06.509Z,197.90
2019-01-26T13:35:51.422Z,187.27
2019-01-26T13:38:36.697Z,194.10
2019-01-26T13:41:21.902Z,196.77
2019-01-26T13:44:07.499Z,204.07
2019-01-26T13:46:52.528Z,202.33
2019-01-26T13:49:43.848Z,172.80
2019-01-26T13:52:24.760Z,171.93
2019-01-26T13:55:13.582Z,177.13
2019-01-26T13:57:58.848Z,179.47
2019-01-26T14:00:43.998Z,180.83
2019-01-26T14:03:29.355Z,175.67
2019-01-26T14:06:14.942Z,181.10
2019-01-26T14:09:00.069Z,185.23
2019-01-26T14:11:45.570Z,182.37
2019-01-26T14:14:30.497Z,175.03
2019-01-26T14:17:15.897Z,181.10
2019-01-26T14:20:01.186Z,188.80
2019-01-26T14:22:46.116Z,216.03
2019-01-26T14:25:31.309Z,214.07
2019-01-26T14:28:16.771Z,204.97
2019-01-26T14:31:02.036Z,210.03
2019-01-26T14:33:47.133Z,214.13
2019-01-26T14:36:31.972Z,208.17
2019-01-26T14:39:17.092Z,206.73
2019-01-26T14:42:01.975Z,201.50
2019-01-26T14:44:47.155Z,222.73
2019-01-26T14:47:32.356Z,202.50
2019-01-26T14:50:18.312Z,199.47
2019-01-26T14:53:03.457Z,212.30
2019-01-26T14:55:48.143Z,212.67
2019-01-26T14:58:32.907Z,209.50
2019-01-26T15:01:20.987Z,219.13
2019-01-26T15:04:06.804Z,204.37
2019-01-26T15:06:51.809Z,225.07
2019-01-26T15:09:36.577Z,223.20
2019-01-26T15:12:21.794Z,205.50
2019-01-26T15:15:09.827Z,235.03
2019-01-26T15:17:55.332Z,220.77
2019-01-26T15:20:40.775Z,208.83
2019-01-26T15:23:25.885Z,207.73
2019-01-26T15:26:11.039Z,210.63
2019-01-26T15:28:56.957Z,194.67
2019-01-26T15:31:42.646Z,201.27
2019-01-26T15:34:27.872Z,212.17
2019-01-26T15:37:13.322Z,216.57
2019-01-26T15:39:58.540Z,300.17
2019-01-26T15:42:44.500Z,308.27
2019-01-26T15:45:38.465Z,284.27
2019-01-26T15:48:23.548Z,257.50
2019-01-26T15:51:10.070Z,253.37
2019-01-26T15:53:55.060Z,246.80
2019-01-26T15:56:40.268Z,266.47
2019-01-26T15:59:25.499Z,284.67
2019-01-26T16:02:10.772Z,314.50
2019-01-26T16:04:55.520Z,324.03
2019-01-26T16:07:40.793Z,363.57
2019-01-26T16:10:25.491Z,311.07
2019-01-26T16:13:10.895Z,217.77
2019-01-26T16:15:56.287Z,206.93
2019-01-26T16:18:41.423Z,197.53
2019-01-26T16:21:26.825Z,191.37
2019-01-26T16:24:11.959Z,198.20
2019-01-26T16:26:56.732Z,204.13
2019-01-26T16:29:41.933Z,208.97
2019-01-26T16:32:26.723Z,228.80
2019-01-26T16:35:14.230Z,216.13
2019-01-26T16:37:59.204Z,197.27
2019-01-26T16:40:44.520Z,200.30
2019-01-26T16:43:29.710Z,220.97
2019-01-26T16:46:15.474Z,220.30
2019-01-26T16:49:00.825Z,222.30
2019-01-26T16:51:46.142Z,241.23
2019-01-26T16:54:31.429Z,245.33
2019-01-26T16:57:16.494Z,250.60
2019-01-26T17:00:01.960Z,353.83
2019-01-26T17:02:46.879Z,284.30
2019-01-26T17:05:32.101Z,318.77
2019-01-26T17:08:16.871Z,292.33
2019-01-26T17:11:02.249Z,269.70
2019-01-26T17:13:48.066Z,267.83
2019-01-26T17:16:33.472Z,258.63
2019-01-26T17:19:21.381Z,291.50
2019-01-26T17:22:06.556Z,318.37
2019-01-26T17:24:51.823Z,278.77
2019-01-26T17:27:36.859Z,225.27
2019-01-26T17:30:30.746Z,200.80
2019-01-26T17:33:15.979Z,191.20
2019-01-26T17:36:00.879Z,188.80
2019-01-26T17:38:47.371Z,179.93
2019-01-26T17:41:32.423Z,184.37
2019-01-26T17:44:17.499Z,191.53
2019-01-26T17:47:02.615Z,178.27
2019-01-26T17:49:48.263Z,176.47
2019-01-26T17:52:40.149Z,191.37
2019-01-26T17:55:20.317Z,184.30
2019-01-26T17:58:04.983Z,181.67
2019-01-26T18:00:55.087Z,179.20
2019-01-26T18:03:40.712Z,188.83
2019-01-26T18:06:25.841Z,180.00
2019-01-26T18:09:10.980Z,188.13
2019-01-26T18:11:55.793Z,188.03
2019-01-26T18:14:41.253Z,344.80
2019-01-26T18:17:26.336Z,279.50
2019-01-26T18:20:17.898Z,246.30
2019-01-26T18:23:02.976Z,199.30
2019-01-26T18:25:48.410Z,287.37
2019-01-26T18:28:33.565Z,287.60
2019-01-26T18:31:18.730Z,245.63
2019-01-26T18:34:04.110Z,268.30
2019-01-26T18:36:49.466Z,252.50
2019-01-26T18:39:35.300Z,271.87
2019-01-26T18:42:20.366Z,220.73
2019-01-26T18:45:09.148Z,237.17
2019-01-26T18:47:54.219Z,194.80
2019-01-26T18:50:42.743Z,204.20
2019-01-26T18:53:27.702Z,182.50
2019-01-26T18:56:13.239Z,176.43
2019-01-26T18:58:58.177Z,180.87
2019-01-26T19:01:43.086Z,188.37
2019-01-26T19:04:28.201Z,211.70
2019-01-26T19:07:13.555Z,214.63
2019-01-26T19:09:58.845Z,223.73
2019-01-26T19:12:43.916Z,212.67
2019-01-26T19:15:48.939Z,215.70
2019-01-26T19:18:33.920Z,206.67
2019-01-26T19:21:19.099Z,195.90
2019-01-26T19:24:04.273Z,194.60
2019-01-26T19:26:49.397Z,206.57
2019-01-26T19:29:34.439Z,202.10
2019-01-26T19:32:19.361Z,204.33
2019-01-26T19:35:06.841Z,217.97
2019-01-26T19:37:51.878Z,201.00
2019-01-26T19:40:38.098Z,191.17
2019-01-26T19:43:22.732Z,198.20
2019-01-26T19:46:07.530Z,192.70
2019-01-26T19:48:52.819Z,189.30
2019-01-26T19:51:38.086Z,190.40
2019-01-26T19:54:23.319Z,183.33
2019-01-26T19:57:08.900Z,187.27
2019-01-26T19:59:54.597Z,195.43
2019-01-26T20:02:39.851Z,191.30
2019-01-26T20:05:25.189Z,198.37
2019-01-26T20:08:10.235Z,198.10
2019-01-26T20:10:55.743Z,194.10
2019-01-26T20:13:40.898Z,192.00
2019-01-26T20:16:25.667Z,199.07
2019-01-26T20:19:11.035Z,205.20
2019-01-26T20:21:58.982Z,204.30
2019-01-26T20:24:43.954Z,194.23
2019-01-26T20:27:29.144Z,202.13
2019-01-26T20:30:17.352Z,192.00
2019-01-26T20:33:04.270Z,188.10
2019-01-26T20:35:49.120Z,183.40
2019-01-26T20:38:34.418Z,184.90
2019-01-26T20:41:20.074Z,187.13
2019-01-26T20:44:05.200Z,191.53
2019-01-26T20:46:50.481Z,188.93
2019-01-26T20:49:35.876Z,182.10
2019-01-26T20:52:20.865Z,178.60
2019-01-26T20:55:09.438Z,177.67
2019-01-26T20:57:54.571Z,180.57
2019-01-26T21:00:39.767Z,190.17
2019-01-26T21:03:25.194Z,192.30
2019-01-26T21:06:10.221Z,189.33
2019-01-26T21:08:55.161Z,182.00
2019-01-26T21:11:40.604Z,189.90
2019-01-26T21:14:25.491Z,192.43
2019-01-26T21:17:10.961Z,199.43
2019-01-26T21:19:57.720Z,186.93
2019-01-26T21:22:42.692Z,177.17
2019-01-26T21:25:28.862Z,180.60
2019-01-26T21:28:13.786Z,186.70
2019-01-26T21:30:58.788Z,181.17
2019-01-26T21:33:44.179Z,184.93
2019-01-26T21:36:29.490Z,192.97
2019-01-26T21:39:14.311Z,176.33
2019-01-26T21:41:59.666Z,182.80
2019-01-26T21:44:44.998Z,193.40
2019-01-26T21:47:30.142Z,190.80
2019-01-26T21:50:18.588Z,185.37
2019-01-26T21:53:03.963Z,184.63
2019-01-26T21:55:49.079Z,171.40
2019-01-26T21:58:34.414Z,186.90
2019-01-26T22:01:19.733Z,192.27
2019-01-26T22:04:05.295Z,189.27
2019-01-26T22:06:50.127Z,190.13
2019-01-26T22:09:35.776Z,193.57
2019-01-26T22:12:23.165Z,180.73
2019-01-26T22:15:11.191Z,200.43
2019-01-26T22:17:57.880Z,179.30
2019-01-26T22:20:42.832Z,198.40
2019-01-26T22:23:28.119Z,201.97
2019-01-26T22:26:14.333Z,178.30
2019-01-26T22:28:59.278Z,190.00
2019-01-26T22:31:44.138Z,193.93
2019-01-26T22:34:29.625Z,183.30
2019-01-26T22:37:14.681Z,198.27
2019-01-26T22:39:59.674Z,186.43
2019-01-26T22:42:44.596Z,187.40
2019-01-26T22:45:29.766Z,194.83
2019-01-26T22:48:15.078Z,186.10
2019-01-26T22:51:00.021Z,179.93
2019-01-26T22:53:45.734Z,182.77
2019-01-26T22:56:30.496Z,178.97
2019-01-26T22:59:15.757Z,183.23
2019-01-26T23:02:00.896Z,182.37
2019-01-26T23:04:59.278Z,188.00
2019-01-26T23:07:44.146Z,170.03
2019-01-26T23:10:39.215Z,182.20
2019-01-26T23:13:25.955Z,173.57
2019-01-26T23:16:33.092Z,164.80
2019-01-26T23:19:30.545Z,171.30
2019-01-26T23:22:22.494Z,173.27
2019-01-26T23:25:11.246Z,170.83
2019-01-26T23:28:15.193Z,161.53
2019-01-26T23:31:17.424Z,172.03
2019-01-26T23:34:02.778Z,165.93
2019-01-26T23:36:48.278Z,175.77
2019-01-26T23:39:33.474Z,161.63
2019-01-26T23:42:18.913Z,160.20
2019-01-26T23:45:07.122Z,162.77
2019-01-26T23:47:52.554Z,155.13
2019-01-26T23:50:37.442Z,162.07
2019-01-26T23:53:22.415Z,171.67
2019-01-26T23:56:07.569Z,167.40
2019-01-26T23:58:52.388Z,145.60
